sensor_id;sensor_type;location;lat;lon;timestamp;pressure;altitude;pressure_sealevel;temperature;humidity
52947;BME280;45776;40.400;17.260;2023-02-01T00:01:09;104799.31;;;12.67;80.55
52947;BME280;45776;40.400;17.260;2023-02-01T00:03:34;104660.97;;;12.41;80.20
52947;BME280;45776;40.400;17.260;2023-02-01T00:06:00;104528.94;;;12.18;79.15
52947;BME280;45776;40.400;17.260;2023-02-01T00:08:26;104508.03;;;12.17;79.13
52947;BME280;45776;40.400;17.260;2023-02-01T00:11:10;104767.69;;;12.62;78.09
52947;BME280;45776;40.400;17.260;2023-02-01T00:13:38;104767.69;;;12.62;77.26
52947;BME280;45776;40.400;17.260;2023-02-01T00:16:06;104747.25;;;12.56;78.50
52947;BME280;45776;40.400;17.260;2023-02-01T00:18:31;104894.25;;;12.81;80.14
52947;BME280;45776;40.400;17.260;2023-02-01T00:20:57;105173.00;;;13.31;79.49
52947;BME280;45776;40.400;17.260;2023-02-01T00:23:23;105421.97;;;13.74;80.97
52947;BME280;45776;40.400;17.260;2023-02-01T00:25:48;105626.94;;;14.09;81.74
52947;BME280;45776;40.400;17.260;2023-02-01T00:28:14;105471.81;;;13.86;78.18
52947;BME280;45776;40.400;17.260;2023-02-01T00:30:39;105171.19;;;13.30;80.66
52947;BME280;45776;40.400;17.260;2023-02-01T00:33:05;105115.38;;;13.17;81.98
52947;BME280;45776;40.400;17.260;2023-02-01T00:35:30;105044.56;;;13.02;83.68
52947;BME280;45776;40.400;17.260;2023-02-01T00:37:55;104765.97;;;12.52;84.09
52947;BME280;45776;40.400;17.260;2023-02-01T00:40:23;104685.81;;;12.38;87.29
52947;BME280;45776;40.400;17.260;2023-02-01T00:42:49;104506.94;;;12.04;88.10
52947;BME280;45776;40.400;17.260;2023-02-01T00:45:14;104430.06;;;11.87;92.81
52947;BME280;45776;40.400;17.260;2023-02-01T00:47:40;104357.94;;;11.74;92.15
52947;BME280;45776;40.400;17.260;2023-02-01T00:50:06;104494.31;;;11.98;94.33
52947;BME280;45776;40.400;17.260;2023-02-01T00:52:31;104569.06;;;12.11;93.49
52947;BME280;45776;40.400;17.260;2023-02-01T00:54:57;104624.47;;;12.21;90.06
52947;BME280;45776;40.400;17.260;2023-02-01T00:57:22;104820.84;;;12.55;88.82
52947;BME280;45776;40.400;17.260;2023-02-01T00:59:47;104796.53;;;12.55;85.79
52947;BME280;45776;40.400;17.260;2023-02-01T01:02:13;104914.63;;;12.76;85.03
52947;BME280;45776;40.400;17.260;2023-02-01T01:04:40;104922.56;;;12.77;84.65
52947;BME280;45776;40.400;17.260;2023-02-01T01:07:05;105353.41;;;13.56;81.93
52947;BME280;45776;40.400;17.260;2023-02-01T01:09:30;105093.47;;;13.15;78.25
52947;BME280;45776;40.400;17.260;2023-02-01T01:11:56;105322.91;;;13.55;78.42
52947;BME280;45776;40.400;17.260;2023-02-01T01:14:21;105535.22;;;13.95;77.71
52947;BME280;45776;40.400;17.260;2023-02-01T01:16:47;105610.66;;;14.11;75.45
52947;BME280;45776;40.400;17.260;2023-02-01T01:19:13;105043.44;;;13.09;77.23
52947;BME280;45776;40.400;17.260;2023-02-01T01:21:38;104823.50;;;12.66;80.20
52947;BME280;45776;40.400;17.260;2023-02-01T01:24:04;104489.78;;;12.06;82.93
52947;BME280;45776;40.400;17.260;2023-02-01T01:26:29;104511.47;;;12.07;84.82
52947;BME280;45776;40.400;17.260;2023-02-01T01:28:56;104487.56;;;12.01;86.01
52947;BME280;45776;40.400;17.260;2023-02-01T01:31:22;104513.81;;;12.04;88.75
52947;BME280;45776;40.400;17.260;2023-02-01T01:33:50;104536.03;;;12.10;86.30
52947;BME280;45776;40.400;17.260;2023-02-01T01:36:16;104608.88;;;12.21;89.20
52947;BME280;45776;40.400;17.260;2023-02-01T01:38:42;104530.47;;;12.06;90.89
52947;BME280;45776;40.400;17.260;2023-02-01T01:41:12;104645.69;;;12.25;90.43
52947;BME280;45776;40.400;17.260;2023-02-01T01:44:02;104932.97;;;12.77;87.23
52947;BME280;45776;40.400;17.260;2023-02-01T01:46:36;104897.84;;;12.72;86.36
52947;BME280;45776;40.400;17.260;2023-02-01T01:51:33;105419.72;;;13.68;83.13
52947;BME280;45776;40.400;17.260;2023-02-01T01:54:06;105598.69;;;14.04;80.07
52947;BME280;45776;40.400;17.260;2023-02-01T01:56:33;105828.94;;;14.47;78.37
52947;BME280;45776;40.400;17.260;2023-02-01T01:59:00;105532.78;;;13.97;76.46
52947;BME280;45776;40.400;17.260;2023-02-01T02:01:27;105254.47;;;13.47;77.17
52947;BME280;45776;40.400;17.260;2023-02-01T02:03:53;105366.25;;;13.63;78.11
52947;BME280;45776;40.400;17.260;2023-02-01T02:08:50;105378.66;;;13.66;79.42
52947;BME280;45776;40.400;17.260;2023-02-01T02:11:16;105395.22;;;13.66;81.76
52947;BME280;45776;40.400;17.260;2023-02-01T02:13:46;105493.25;;;13.83;83.29
52947;BME280;45776;40.400;17.260;2023-02-01T02:22:12;105398.75;;;13.58;91.04
52947;BME280;45776;40.400;17.260;2023-02-01T02:25:02;105465.06;;;13.70;91.99
52947;BME280;45776;40.400;17.260;2023-02-01T02:34:01;105368.91;;;13.54;90.44
52947;BME280;45776;40.400;17.260;2023-02-01T02:42:41;105262.31;;;13.30;98.55
52947;BME280;45776;40.400;17.260;2023-02-01T02:45:51;105206.63;;;13.19;100.00
52947;BME280;45776;40.400;17.260;2023-02-01T02:54:08;105265.69;;;13.29;98.96
52947;BME280;45776;40.400;17.260;2023-02-01T02:56:56;105296.75;;;13.36;98.69
52947;BME280;45776;40.400;17.260;2023-02-01T02:59:43;105356.53;;;13.43;100.00
52947;BME280;45776;40.400;17.260;2023-02-01T03:02:28;105566.84;;;13.81;99.80
52947;BME280;45776;40.400;17.260;2023-02-01T03:05:13;105180.91;;;13.13;100.00
52947;BME280;45776;40.400;17.260;2023-02-01T03:10:17;105354.69;;;13.42;100.00
52947;BME280;45776;40.400;17.260;2023-02-01T03:12:49;105427.28;;;13.56;98.32
52947;BME280;45776;40.400;17.260;2023-02-01T03:17:57;105732.75;;;14.15;91.85
52947;BME280;45776;40.400;17.260;2023-02-01T03:20:27;105853.81;;;14.35;92.74
52947;BME280;45776;40.400;17.260;2023-02-01T03:22:54;105774.94;;;14.20;91.66
52947;BME280;45776;40.400;17.260;2023-02-01T03:25:29;105647.78;;;14.00;91.43
52947;BME280;45776;40.400;17.260;2023-02-01T03:28:07;105678.63;;;14.04;91.47
52947;BME280;45776;40.400;17.260;2023-02-01T03:30:38;105707.91;;;14.10;90.32
52947;BME280;45776;40.400;17.260;2023-02-01T03:33:09;105757.63;;;14.20;89.82
52947;BME280;45776;40.400;17.260;2023-02-01T03:39:20;106042.06;;;14.73;88.14
52947;BME280;45776;40.400;17.260;2023-02-01T03:41:35;105988.91;;;14.64;87.41
52947;BME280;45776;40.400;17.260;2023-02-01T03:44:16;106019.81;;;14.68;90.54
52947;BME280;45776;40.400;17.260;2023-02-01T03:46:52;105857.78;;;14.40;89.72
52947;BME280;45776;40.400;17.260;2023-02-01T03:49:43;106143.19;;;14.92;86.99
52947;BME280;45776;40.400;17.260;2023-02-01T03:52:14;105695.78;;;14.11;87.98
52947;BME280;45776;40.400;17.260;2023-02-01T03:54:42;106117.34;;;14.86;89.15
52947;BME280;45776;40.400;17.260;2023-02-01T03:57:13;106083.69;;;14.80;86.90
52947;BME280;45776;40.400;17.260;2023-02-01T03:59:44;105689.78;;;14.12;85.46
52947;BME280;45776;40.400;17.260;2023-02-01T04:02:10;105558.09;;;13.89;83.41
52947;BME280;45776;40.400;17.260;2023-02-01T04:04:36;105145.41;;;13.14;86.50
52947;BME280;45776;40.400;17.260;2023-02-01T04:07:02;105107.16;;;13.04;88.07
52947;BME280;45776;40.400;17.260;2023-02-01T04:09:27;104894.50;;;12.65;89.79
52947;BME280;45776;40.400;17.260;2023-02-01T04:11:52;105082.25;;;12.97;91.06
52947;BME280;45776;40.400;17.260;2023-02-01T04:14:18;104674.91;;;12.23;91.28
52947;BME280;45776;40.400;17.260;2023-02-01T04:16:44;104931.22;;;12.68;93.26
52947;BME280;45776;40.400;17.260;2023-02-01T04:19:09;104865.97;;;12.56;93.25
52947;BME280;45776;40.400;17.260;2023-02-01T04:21:35;104910.75;;;12.62;92.07
52947;BME280;45776;40.400;17.260;2023-02-01T04:24:00;104921.47;;;12.65;91.77
52947;BME280;45776;40.400;17.260;2023-02-01T04:26:26;105028.16;;;12.84;88.86
52947;BME280;45776;40.400;17.260;2023-02-01T04:28:51;105106.13;;;13.02;88.62
52947;BME280;45776;40.400;17.260;2023-02-01T04:31:18;104985.31;;;12.81;86.21
52947;BME280;45776;40.400;17.260;2023-02-01T04:33:54;105025.97;;;12.89;85.86
52947;BME280;45776;40.400;17.260;2023-02-01T04:36:21;105322.81;;;13.45;82.82
52947;BME280;45776;40.400;17.260;2023-02-01T04:38:48;105754.66;;;14.26;80.39
52947;BME280;45776;40.400;17.260;2023-02-01T04:41:14;105358.47;;;13.54;80.20
52947;BME280;45776;40.400;17.260;2023-02-01T04:43:40;105385.88;;;13.60;79.48
52947;BME280;45776;40.400;17.260;2023-02-01T04:46:06;105080.66;;;13.08;79.15
52947;BME280;45776;40.400;17.260;2023-02-01T04:48:31;105480.25;;;13.75;81.34
52947;BME280;45776;40.400;17.260;2023-02-01T04:50:57;105180.09;;;13.23;78.62
52947;BME280;45776;40.400;17.260;2023-02-01T04:53:22;105299.97;;;13.42;80.44
52947;BME280;45776;40.400;17.260;2023-02-01T04:55:48;105328.94;;;13.45;80.91
52947;BME280;45776;40.400;17.260;2023-02-01T04:58:15;105441.34;;;13.67;80.92
52947;BME280;45776;40.400;17.260;2023-02-01T05:00:40;105664.81;;;14.05;83.35
52947;BME280;45776;40.400;17.260;2023-02-01T05:03:06;106089.41;;;14.85;81.32
52947;BME280;45776;40.400;17.260;2023-02-01T05:05:32;106226.19;;;15.12;79.66
52947;BME280;45776;40.400;17.260;2023-02-01T05:07:57;105973.59;;;14.67;81.06
52947;BME280;45776;40.400;17.260;2023-02-01T05:10:23;105781.53;;;14.34;79.55
52947;BME280;45776;40.400;17.260;2023-02-01T05:12:48;105658.34;;;14.10;79.60
52947;BME280;45776;40.400;17.260;2023-02-01T05:15:33;105619.09;;;14.00;83.01
52947;BME280;45776;40.400;17.260;2023-02-01T05:17:58;105799.31;;;14.29;83.32
52947;BME280;45776;40.400;17.260;2023-02-01T05:20:24;105906.91;;;14.53;80.55
52947;BME280;45776;40.400;17.260;2023-02-01T05:22:49;105930.25;;;14.60;80.41
52947;BME280;45776;40.400;17.260;2023-02-01T05:25:15;105979.13;;;14.70;79.09
52947;BME280;45776;40.400;17.260;2023-02-01T05:27:40;105444.66;;;13.75;79.98
52947;BME280;45776;40.400;17.260;2023-02-01T05:30:07;105593.66;;;13.97;80.93
52947;BME280;45776;40.400;17.260;2023-02-01T05:32:32;105883.56;;;14.55;78.33
52947;BME280;45776;40.400;17.260;2023-02-01T05:34:58;105986.63;;;14.76;76.56
52947;BME280;45776;40.400;17.260;2023-02-01T05:37:24;105867.78;;;14.53;77.13
52947;BME280;45776;40.400;17.260;2023-02-01T05:39:49;105779.22;;;14.37;78.23
52947;BME280;45776;40.400;17.260;2023-02-01T05:42:15;106218.06;;;15.18;76.23
52947;BME280;45776;40.400;17.260;2023-02-01T05:44:40;106084.50;;;14.97;75.11
52947;BME280;45776;40.400;17.260;2023-02-01T05:47:06;106039.34;;;14.89;74.91
52947;BME280;45776;40.400;17.260;2023-02-01T05:49:31;105724.75;;;14.31;76.16
52947;BME280;45776;40.400;17.260;2023-02-01T05:51:57;105555.31;;;13.96;78.91
52947;BME280;45776;40.400;17.260;2023-02-01T05:54:22;105544.00;;;13.87;83.93
52947;BME280;45776;40.400;17.260;2023-02-01T05:56:48;105516.44;;;13.80;86.89
52947;BME280;45776;40.400;17.260;2023-02-01T05:59:13;105344.09;;;13.49;88.66
52947;BME280;45776;40.400;17.260;2023-02-01T06:01:39;105595.53;;;13.90;91.76
52947;BME280;45776;40.400;17.260;2023-02-01T06:04:04;105432.94;;;13.61;94.70
52947;BME280;45776;40.400;17.260;2023-02-01T06:06:30;106067.28;;;14.73;93.49
52947;BME280;45776;40.400;17.260;2023-02-01T06:08:55;106547.25;;;15.67;85.19
52947;BME280;45776;40.400;17.260;2023-02-01T06:11:20;106633.25;;;15.89;80.53
52947;BME280;45776;40.400;17.260;2023-02-01T06:13:46;106731.13;;;16.16;76.83
52947;BME280;45776;40.400;17.260;2023-02-01T06:16:11;106675.03;;;16.05;76.90
52947;BME280;45776;40.400;17.260;2023-02-01T06:18:37;106852.78;;;16.44;73.45
52947;BME280;45776;40.400;17.260;2023-02-01T06:21:03;106833.22;;;16.40;73.94
52947;BME280;45776;40.400;17.260;2023-02-01T06:23:30;107054.47;;;16.85;71.76
52947;BME280;45776;40.400;17.260;2023-02-01T06:26:03;106999.25;;;16.83;69.60
52947;BME280;45776;40.400;17.260;2023-02-01T06:28:30;107043.31;;;16.95;67.68
52947;BME280;45776;40.400;17.260;2023-02-01T06:30:56;107090.53;;;17.03;68.05
52947;BME280;45776;40.400;17.260;2023-02-01T06:33:24;107042.72;;;16.97;67.37
52947;BME280;45776;40.400;17.260;2023-02-01T06:35:56;107160.56;;;17.21;67.03
52947;BME280;45776;40.400;17.260;2023-02-01T06:38:22;106724.00;;;16.39;68.00
52947;BME280;45776;40.400;17.260;2023-02-01T06:40:52;107334.94;;;17.49;67.61
52947;BME280;45776;40.400;17.260;2023-02-01T06:43:18;106490.34;;;15.98;68.64
52947;BME280;45776;40.400;17.260;2023-02-01T06:45:43;106537.44;;;15.98;70.76
52947;BME280;45776;40.400;17.260;2023-02-01T06:48:09;106746.03;;;16.33;71.30
52947;BME280;45776;40.400;17.260;2023-02-01T06:50:34;106618.59;;;16.16;69.58
52947;BME280;45776;40.400;17.260;2023-02-01T06:53:00;106721.53;;;16.32;70.06
52947;BME280;45776;40.400;17.260;2023-02-01T06:55:26;106744.97;;;16.39;68.70
52947;BME280;45776;40.400;17.260;2023-02-01T06:57:55;106565.75;;;16.02;71.15
52947;BME280;45776;40.400;17.260;2023-02-01T07:00:22;106935.09;;;16.71;69.34
52947;BME280;45776;40.400;17.260;2023-02-01T07:02:48;106837.66;;;16.58;67.94
52947;BME280;45776;40.400;17.260;2023-02-01T07:05:13;106920.63;;;16.75;67.52
52947;BME280;45776;40.400;17.260;2023-02-01T07:07:39;106369.63;;;15.77;66.90
52947;BME280;45776;40.400;17.260;2023-02-01T07:10:04;106016.91;;;15.00;71.94
52947;BME280;45776;40.400;17.260;2023-02-01T07:12:30;106359.72;;;15.57;71.79
52947;BME280;45776;40.400;17.260;2023-02-01T07:14:55;106338.34;;;15.53;71.73
52947;BME280;45776;40.400;17.260;2023-02-01T07:17:22;106668.94;;;16.13;71.71
52947;BME280;45776;40.400;17.260;2023-02-01T07:19:47;106395.28;;;15.64;71.66
52947;BME280;45776;40.400;17.260;2023-02-01T07:22:13;106205.00;;;15.26;73.92
52947;BME280;45776;40.400;17.260;2023-02-01T07:24:40;106677.38;;;16.11;73.64
52947;BME280;45776;40.400;17.260;2023-02-01T07:27:06;106695.09;;;16.13;74.79
52947;BME280;45776;40.400;17.260;2023-02-01T07:29:31;107102.56;;;16.85;74.19
52947;BME280;45776;40.400;17.260;2023-02-01T07:31:57;106815.50;;;16.38;72.81
52947;BME280;45776;40.400;17.260;2023-02-01T07:34:23;106411.13;;;15.66;73.40
52947;BME280;45776;40.400;17.260;2023-02-01T07:36:48;107308.13;;;17.19;75.02
52947;BME280;45776;40.400;17.260;2023-02-01T07:39:14;107508.97;;;17.73;69.00
52947;BME280;45776;40.400;17.260;2023-02-01T07:41:39;107104.84;;;16.98;70.70
52947;BME280;45776;40.400;17.260;2023-02-01T07:44:05;107430.72;;;17.61;69.15
52947;BME280;45776;40.400;17.260;2023-02-01T07:46:30;107285.38;;;17.43;66.96
52947;BME280;45776;40.400;17.260;2023-02-01T07:48:56;107539.09;;;17.92;66.46
52947;BME280;45776;40.400;17.260;2023-02-01T07:51:21;107300.59;;;17.39;70.87
52947;BME280;45776;40.400;17.260;2023-02-01T07:53:46;107145.69;;;17.12;70.38
52947;BME280;45776;40.400;17.260;2023-02-01T07:56:15;107029.19;;;16.85;72.04
52947;BME280;45776;40.400;17.260;2023-02-01T07:58:40;107085.41;;;16.96;71.50
52947;BME280;45776;40.400;17.260;2023-02-01T08:01:10;106986.28;;;16.76;72.46
52947;BME280;45776;40.400;17.260;2023-02-01T08:03:56;107081.44;;;17.00;68.71
52947;BME280;45776;40.400;17.260;2023-02-01T08:06:23;107117.25;;;17.08;68.62
52947;BME280;45776;40.400;17.260;2023-02-01T08:08:49;106879.44;;;16.65;68.47
52947;BME280;45776;40.400;17.260;2023-02-01T08:11:16;107024.44;;;16.90;68.96
52947;BME280;45776;40.400;17.260;2023-02-01T08:13:42;106861.53;;;16.61;67.83
52947;BME280;45776;40.400;17.260;2023-02-01T08:16:09;106992.34;;;16.84;67.31
52947;BME280;45776;40.400;17.260;2023-02-01T08:18:36;107056.59;;;16.96;66.89
52947;BME280;45776;40.400;17.260;2023-02-01T08:21:07;106486.94;;;15.99;66.71
52947;BME280;45776;40.400;17.260;2023-02-01T08:23:34;106660.34;;;16.23;68.95
52947;BME280;45776;40.400;17.260;2023-02-01T08:28:46;106933.72;;;16.75;66.01
52947;BME280;45776;40.400;17.260;2023-02-01T08:31:14;106581.66;;;16.13;67.57
52947;BME280;45776;40.400;17.260;2023-02-01T08:33:41;107008.16;;;16.93;65.25
52947;BME280;45776;40.400;17.260;2023-02-01T08:36:08;107318.94;;;17.55;64.27
52947;BME280;45776;40.400;17.260;2023-02-01T08:38:38;107216.06;;;17.41;62.62
52947;BME280;45776;40.400;17.260;2023-02-01T08:41:11;106687.13;;;16.54;59.69
52947;BME280;45776;40.400;17.260;2023-02-01T08:43:37;107156.09;;;17.44;58.01
52947;BME280;45776;40.400;17.260;2023-02-01T08:46:04;106818.97;;;16.88;57.13
52947;BME280;45776;40.400;17.260;2023-02-01T08:48:30;106756.38;;;16.74;57.63
52947;BME280;45776;40.400;17.260;2023-02-01T08:50:56;106765.75;;;16.71;59.22
52947;BME280;45776;40.400;17.260;2023-02-01T08:53:21;107170.63;;;17.49;57.38
52947;BME280;45776;40.400;17.260;2023-02-01T08:55:47;106893.19;;;16.96;58.83
52947;BME280;45776;40.400;17.260;2023-02-01T08:58:13;107010.94;;;17.19;58.61
52947;BME280;45776;40.400;17.260;2023-02-01T09:00:40;107173.91;;;17.56;57.23
52947;BME280;45776;40.400;17.260;2023-02-01T09:03:05;107110.41;;;17.42;57.19
52947;BME280;45776;40.400;17.260;2023-02-01T09:05:31;107403.00;;;17.95;57.22
52947;BME280;45776;40.400;17.260;2023-02-01T09:07:56;107404.75;;;18.04;55.15
52947;BME280;45776;40.400;17.260;2023-02-01T09:10:22;107469.69;;;18.13;55.92
52947;BME280;45776;40.400;17.260;2023-02-01T09:12:47;107602.34;;;18.42;54.81
52947;BME280;45776;40.400;17.260;2023-02-01T09:15:13;107571.78;;;18.42;54.28
52947;BME280;45776;40.400;17.260;2023-02-01T09:17:38;107344.38;;;18.04;53.73
52947;BME280;45776;40.400;17.260;2023-02-01T09:20:05;107299.09;;;17.97;52.78
52947;BME280;45776;40.400;17.260;2023-02-01T09:22:30;107581.44;;;18.51;52.55
52947;BME280;45776;40.400;17.260;2023-02-01T09:24:56;106630.78;;;16.75;52.92
52947;BME280;45776;40.400;17.260;2023-02-01T09:27:21;106785.25;;;16.91;54.71
52947;BME280;45776;40.400;17.260;2023-02-01T09:29:47;106994.81;;;17.32;54.20
52947;BME280;45776;40.400;17.260;2023-02-01T09:32:18;107000.56;;;17.37;53.33
52947;BME280;45776;40.400;17.260;2023-02-01T09:34:44;107038.25;;;17.46;52.77
52947;BME280;45776;40.400;17.260;2023-02-01T09:37:09;106945.66;;;17.38;51.49
52947;BME280;45776;40.400;17.260;2023-02-01T09:39:35;107241.53;;;17.83;53.59
52947;BME280;45776;40.400;17.260;2023-02-01T09:46:54;107121.25;;;17.70;51.90
52947;BME280;45776;40.400;17.260;2023-02-01T09:49:30;107353.56;;;18.16;52.04
52947;BME280;45776;40.400;17.260;2023-02-01T09:51:56;107303.06;;;17.94;55.05
52947;BME280;45776;40.400;17.260;2023-02-01T09:54:25;107396.78;;;18.11;54.84
52947;BME280;45776;40.400;17.260;2023-02-01T09:56:56;107450.88;;;18.34;51.85
52947;BME280;45776;40.400;17.260;2023-02-01T10:02:08;107573.78;;;18.61;50.77
52947;BME280;45776;40.400;17.260;2023-02-01T10:04:36;107462.13;;;18.49;49.33
52947;BME280;45776;40.400;17.260;2023-02-01T10:17:31;108173.19;;;20.00;49.18
52947;BME280;45776;40.400;17.260;2023-02-01T10:22:47;108306.88;;;20.33;48.77
52947;BME280;45776;40.400;17.260;2023-02-01T10:25:23;108710.84;;;21.15;48.09
52947;BME280;45776;40.400;17.260;2023-02-01T10:27:51;108423.06;;;20.74;46.43
52947;BME280;45776;40.400;17.260;2023-02-01T10:32:48;108462.38;;;20.80;46.45
52947;BME280;45776;40.400;17.260;2023-02-01T10:35:34;108092.13;;;20.14;46.36
52947;BME280;45776;40.400;17.260;2023-02-01T10:38:02;108619.72;;;21.26;44.56
52947;BME280;45776;40.400;17.260;2023-02-01T10:40:29;108289.97;;;20.63;45.92
52947;BME280;45776;40.400;17.260;2023-02-01T10:42:59;108106.25;;;20.30;45.43
52947;BME280;45776;40.400;17.260;2023-02-01T10:45:27;108146.94;;;20.41;44.61
52947;BME280;45776;40.400;17.260;2023-02-01T10:47:56;107387.72;;;18.99;45.67
52947;BME280;45776;40.400;17.260;2023-02-01T10:50:48;107114.06;;;18.27;48.19
52947;BME280;45776;40.400;17.260;2023-02-01T10:55:53;107817.97;;;19.63;46.59
52947;BME280;45776;40.400;17.260;2023-02-01T10:58:30;107633.25;;;19.33;46.86
52947;BME280;45776;40.400;17.260;2023-02-01T11:01:09;107646.69;;;19.28;48.77
52947;BME280;45776;40.400;17.260;2023-02-01T11:04:07;107461.41;;;19.08;46.37
52947;BME280;45776;40.400;17.260;2023-02-01T11:06:43;107648.25;;;19.26;49.52
52947;BME280;45776;40.400;17.260;2023-02-01T11:14:27;106712.41;;;17.31;54.22
52947;BME280;45776;40.400;17.260;2023-02-01T11:16:55;106726.16;;;17.28;55.70
52947;BME280;45776;40.400;17.260;2023-02-01T11:19:22;107345.31;;;18.29;58.89
52947;BME280;45776;40.400;17.260;2023-02-01T11:21:52;106736.81;;;17.30;56.54
52947;BME280;45776;40.400;17.260;2023-02-01T11:24:31;106965.22;;;17.75;54.37
52947;BME280;45776;40.400;17.260;2023-02-01T11:26:59;107048.66;;;17.95;55.13
52947;BME280;45776;40.400;17.260;2023-02-01T11:29:36;107137.31;;;18.07;55.47
52947;BME280;45776;40.400;17.260;2023-02-01T11:32:03;107381.16;;;18.53;54.61
52947;BME280;45776;40.400;17.260;2023-02-01T11:34:37;107169.97;;;18.26;53.00
52947;BME280;45776;40.400;17.260;2023-02-01T11:37:04;107190.22;;;18.27;52.95
52947;BME280;45776;40.400;17.260;2023-02-01T11:39:35;106832.78;;;17.63;53.88
52947;BME280;45776;40.400;17.260;2023-02-01T11:42:15;107504.81;;;18.80;54.54
52947;BME280;45776;40.400;17.260;2023-02-01T11:44:43;107287.78;;;18.48;54.34
52947;BME280;45776;40.400;17.260;2023-02-01T11:49:59;107829.81;;;19.34;56.55
52947;BME280;45776;40.400;17.260;2023-02-01T11:55:39;108276.22;;;20.27;54.69
52947;BME280;45776;40.400;17.260;2023-02-01T12:11:59;107317.03;;;18.51;55.57
52947;BME280;45776;40.400;17.260;2023-02-01T12:26:05;107884.47;;;19.85;50.11
52947;BME280;45776;40.400;17.260;2023-02-01T12:37:14;108318.63;;;20.60;50.23
52947;BME280;45776;40.400;17.260;2023-02-01T12:39:48;108062.63;;;20.41;47.05
52947;BME280;45776;40.400;17.260;2023-02-01T12:42:41;107651.63;;;19.83;44.71
52947;BME280;45776;40.400;17.260;2023-02-01T12:45:32;107268.41;;;19.15;44.78
52947;BME280;45776;40.400;17.260;2023-02-01T12:48:05;107849.94;;;20.15;45.35
52947;BME280;45776;40.400;17.260;2023-02-01T12:50:43;108564.97;;;21.48;45.37
52947;BME280;45776;40.400;17.260;2023-02-01T12:53:22;108213.81;;;20.74;47.44
52947;BME280;45776;40.400;17.260;2023-02-01T12:56:02;107297.06;;;18.87;51.10
52947;BME280;45776;40.400;17.260;2023-02-01T12:58:48;108167.72;;;20.38;50.35
52947;BME280;45776;40.400;17.260;2023-02-01T13:01:24;106992.22;;;18.34;50.04
52947;BME280;45776;40.400;17.260;2023-02-01T13:07:05;108385.91;;;20.96;48.03
52947;BME280;45776;40.400;17.260;2023-02-01T13:12:04;108339.34;;;20.80;49.52
52947;BME280;45776;40.400;17.260;2023-02-01T13:14:54;108654.19;;;21.51;48.26
52947;BME280;45776;40.400;17.260;2023-02-01T13:17:26;108813.47;;;21.89;47.24
52947;BME280;45776;40.400;17.260;2023-02-01T13:20:06;108209.53;;;20.83;47.14
52947;BME280;45776;40.400;17.260;2023-02-01T13:22:41;108390.78;;;21.00;49.11
52947;BME280;45776;40.400;17.260;2023-02-01T13:27:55;108691.84;;;21.57;48.59
52947;BME280;45776;40.400;17.260;2023-02-01T13:30:45;107859.94;;;20.02;49.86
52947;BME280;45776;40.400;17.260;2023-02-01T13:41:25;107880.13;;;20.10;48.28
52947;BME280;45776;40.400;17.260;2023-02-01T13:43:57;107458.53;;;19.31;49.13
52947;BME280;45776;40.400;17.260;2023-02-01T13:46:23;106987.56;;;18.40;50.58
52947;BME280;45776;40.400;17.260;2023-02-01T13:48:54;108015.03;;;20.24;50.34
52947;BME280;45776;40.400;17.260;2023-02-01T13:51:42;108252.94;;;20.78;48.21
52947;BME280;45776;40.400;17.260;2023-02-01T13:54:29;107467.44;;;19.49;47.20
52947;BME280;45776;40.400;17.260;2023-02-01T13:56:55;108102.13;;;20.73;45.66
52947;BME280;45776;40.400;17.260;2023-02-01T14:02:37;108298.09;;;21.13;45.04
52947;BME280;45776;40.400;17.260;2023-02-01T14:05:03;107484.34;;;19.69;44.55
52947;BME280;45776;40.400;17.260;2023-02-01T14:07:28;107828.69;;;20.39;43.25
52947;BME280;45776;40.400;17.260;2023-02-01T14:09:54;107715.59;;;20.07;45.09
52947;BME280;45776;40.400;17.260;2023-02-01T14:12:43;107501.22;;;19.62;45.77
52947;BME280;45776;40.400;17.260;2023-02-01T14:15:26;107708.31;;;20.13;43.71
52947;BME280;45776;40.400;17.260;2023-02-01T14:17:52;107500.75;;;19.66;45.26
52947;BME280;45776;40.400;17.260;2023-02-01T14:20:40;107128.72;;;18.94;45.34
52947;BME280;45776;40.400;17.260;2023-02-01T14:23:13;107221.97;;;19.15;45.01
52947;BME280;45776;40.400;17.260;2023-02-01T14:25:40;107396.69;;;19.52;43.97
52947;BME280;45776;40.400;17.260;2023-02-01T14:28:22;107027.75;;;18.92;43.81
52947;BME280;45776;40.400;17.260;2023-02-01T14:30:49;106935.59;;;18.73;43.78
52947;BME280;45776;40.400;17.260;2023-02-01T14:33:20;107258.50;;;19.30;43.44
52947;BME280;45776;40.400;17.260;2023-02-01T14:36:00;106292.97;;;17.59;43.42
52947;BME280;45776;40.400;17.260;2023-02-01T14:38:27;106346.81;;;17.55;45.12
52947;BME280;45776;40.400;17.260;2023-02-01T14:40:52;106406.38;;;17.56;45.83
52947;BME280;45776;40.400;17.260;2023-02-01T14:43:51;106650.16;;;17.91;47.39
52947;BME280;45776;40.400;17.260;2023-02-01T14:47:08;106879.88;;;18.32;47.22
52947;BME280;45776;40.400;17.260;2023-02-01T14:50:07;106423.53;;;17.44;47.71
52947;BME280;45776;40.400;17.260;2023-02-01T14:52:38;106420.13;;;17.45;47.71
52947;BME280;45776;40.400;17.260;2023-02-01T14:55:25;106243.91;;;17.11;47.92
52947;BME280;45776;40.400;17.260;2023-02-01T14:57:55;106656.72;;;17.77;48.51
52947;BME280;45776;40.400;17.260;2023-02-01T15:00:28;106142.94;;;16.86;48.37
52947;BME280;45776;40.400;17.260;2023-02-01T15:03:01;106227.34;;;17.01;48.23
52947;BME280;45776;40.400;17.260;2023-02-01T15:05:40;106401.84;;;17.27;49.78